createdAt,value
2017-09-28T00:01:23.370Z,101796.30
2017-09-28T00:03:50.783Z,101797.40
2017-09-28T00:06:18.187Z,101802.44
2017-09-28T00:08:45.592Z,101797.69
2017-09-28T00:11:12.986Z,101800.97
2017-09-28T00:13:40.395Z,101804.29
2017-09-28T00:16:07.793Z,101797.87
2017-09-28T00:18:35.216Z,101801.17
2017-09-28T00:21:02.611Z,101799.02
2017-09-28T00:23:30.118Z,101797.69
2017-09-28T00:25:57.515Z,101792.05
2017-09-28T00:28:24.969Z,101791.46
2017-09-28T00:30:52.390Z,101787.70
2017-09-28T00:33:19.794Z,101786.17
2017-09-28T00:35:47.191Z,101787.98
2017-09-28T00:38:14.598Z,101788.48
2017-09-28T00:40:41.998Z,101784.35
2017-09-28T00:43:09.398Z,101782.97
2017-09-28T00:45:36.801Z,101787.27
2017-09-28T00:48:04.207Z,101781.00
2017-09-28T00:50:31.606Z,101791.78
2017-09-28T00:52:59.019Z,101785.08
2017-09-28T00:55:26.419Z,101784.38
2017-09-28T00:57:53.911Z,101785.17
2017-09-28T01:00:21.311Z,101777.41
2017-09-28T01:02:48.719Z,101776.42
2017-09-28T01:05:16.114Z,101779.45
2017-09-28T01:07:43.518Z,101780.08
2017-09-28T01:10:10.958Z,101780.35
2017-09-28T01:12:38.365Z,101773.39
2017-09-28T01:15:05.775Z,101775.72
2017-09-28T01:17:33.175Z,101776.45
2017-09-28T01:20:00.628Z,101778.73
2017-09-28T01:22:28.026Z,101776.14
2017-09-28T01:24:55.430Z,101773.78
2017-09-28T01:27:22.836Z,101779.37
2017-09-28T01:29:50.327Z,101783.33
2017-09-28T01:32:17.782Z,101785.52
2017-09-28T01:34:45.247Z,101786.31
2017-09-28T01:37:12.655Z,101791.53
2017-09-28T01:39:40.063Z,101789.44
2017-09-28T01:42:07.463Z,101785.04
2017-09-28T01:44:34.870Z,101787.34
2017-09-28T01:47:02.266Z,101792.25
2017-09-28T01:49:29.670Z,101783.35
2017-09-28T01:51:57.075Z,101784.86
2017-09-28T01:54:24.470Z,101784.78
2017-09-28T01:56:51.867Z,101784.58
2017-09-28T01:59:19.271Z,101780.01
2017-09-28T02:01:46.759Z,101781.47
2017-09-28T02:04:14.164Z,101776.02
2017-09-28T02:06:41.558Z,101776.62
2017-09-28T02:09:08.968Z,101782.30
2017-09-28T02:11:36.367Z,101775.75
2017-09-28T02:14:03.786Z,101778.08
2017-09-28T02:16:31.184Z,101780.11
2017-09-28T02:18:58.590Z,101779.17
2017-09-28T02:21:25.990Z,101772.02
2017-09-28T02:23:53.459Z,101776.47
2017-09-28T02:26:20.926Z,101776.50
2017-09-28T02:28:48.313Z,101777.30
2017-09-28T02:31:15.723Z,101778.10
2017-09-28T02:33:43.127Z,101775.16
2017-09-28T02:36:10.535Z,101778.39
2017-09-28T02:38:37.936Z,101773.68
2017-09-28T02:41:05.334Z,101769.50
2017-09-28T02:43:32.734Z,101777.86
2017-09-28T02:46:00.139Z,101769.99
2017-09-28T02:48:27.543Z,101769.30
2017-09-28T02:50:54.950Z,101773.39
2017-09-28T02:53:22.422Z,101772.96
2017-09-28T02:55:49.827Z,101767.89
2017-09-28T02:58:17.334Z,101767.19
2017-09-28T03:00:44.759Z,101765.18
2017-09-28T03:03:12.163Z,101777.94
2017-09-28T03:05:39.578Z,101773.02
2017-09-28T03:08:06.982Z,101773.73
2017-09-28T03:10:34.398Z,101766.50
2017-09-28T03:13:01.813Z,101775.03
2017-09-28T03:15:29.226Z,101770.61
2017-09-28T03:17:56.623Z,101769.56
2017-09-28T03:20:24.031Z,101781.25
2017-09-28T03:22:51.438Z,101776.19
2017-09-28T03:25:18.850Z,101773.78
2017-09-28T03:27:46.267Z,101779.73
2017-09-28T03:30:13.759Z,101773.30
2017-09-28T03:32:41.162Z,101776.59
2017-09-28T03:35:08.570Z,101770.86
2017-09-28T03:37:36.044Z,101778.34
2017-09-28T03:40:03.450Z,101782.98
2017-09-28T03:42:30.858Z,101779.34
2017-09-28T03:44:58.263Z,101774.50
2017-09-28T03:47:25.759Z,101778.35
2017-09-28T03:49:53.156Z,101767.83
2017-09-28T03:52:20.562Z,101774.98
2017-09-28T03:54:48.006Z,101775.34
2017-09-28T03:57:15.395Z,101777.72
2017-09-28T03:59:42.807Z,101775.74
2017-09-28T04:02:10.228Z,101776.65
2017-09-28T04:04:37.627Z,101768.43
2017-09-28T04:07:05.038Z,101766.47
2017-09-28T04:09:32.444Z,101776.33
2017-09-28T04:11:59.862Z,101771.48
2017-09-28T04:14:27.263Z,101773.15
2017-09-28T04:16:54.679Z,101771.77
2017-09-28T04:19:22.079Z,101765.88
2017-09-28T04:21:49.530Z,101759.42
2017-09-28T04:24:16.942Z,101758.67
2017-09-28T04:26:44.339Z,101758.18
2017-09-28T04:29:11.767Z,101759.70
2017-09-28T04:31:39.171Z,101752.06
2017-09-28T04:34:06.575Z,101752.30
2017-09-28T04:36:34.083Z,101755.70
2017-09-28T04:39:01.479Z,101762.43
2017-09-28T04:41:28.882Z,101760.47
2017-09-28T04:43:56.438Z,101768.59
2017-09-28T04:46:23.852Z,101766.95
2017-09-28T04:48:51.262Z,101766.42
2017-09-28T04:51:18.669Z,101760.81
2017-09-28T04:53:46.071Z,101768.84
2017-09-28T04:56:13.481Z,101769.27
2017-09-28T04:58:40.973Z,101766.57
2017-09-28T05:03:59.034Z,101775.64
2017-09-28T05:06:26.440Z,101766.94
2017-09-28T05:08:53.847Z,101764.16
2017-09-28T05:11:21.267Z,101765.01
2017-09-28T05:13:48.660Z,101767.12
2017-09-28T05:16:16.054Z,101764.46
2017-09-28T05:18:43.458Z,101769.85
2017-09-28T05:21:10.861Z,101769.28
2017-09-28T05:23:38.381Z,101778.78
2017-09-28T05:26:05.783Z,101771.75
2017-09-28T05:28:33.186Z,101774.48
2017-09-28T05:31:00.591Z,101776.72
2017-09-28T05:33:27.988Z,101777.30
2017-09-28T05:35:55.399Z,101772.99
2017-09-28T05:38:22.798Z,101777.20
2017-09-28T05:40:50.215Z,101781.20
2017-09-28T05:43:17.619Z,101776.95
2017-09-28T05:45:45.022Z,101779.47
2017-09-28T05:48:12.414Z,101780.23
2017-09-28T05:50:39.826Z,101782.95
2017-09-28T05:53:07.235Z,101785.13
2017-09-28T05:55:34.639Z,101788.67
2017-09-28T05:58:02.047Z,101793.42
2017-09-28T06:00:29.455Z,101791.03
2017-09-28T06:02:56.851Z,101790.45
2017-09-28T06:05:24.258Z,101802.14
2017-09-28T06:07:51.679Z,101796.63
2017-09-28T06:10:19.096Z,101797.59
2017-09-28T06:12:46.574Z,101798.36
2017-09-28T06:15:13.991Z,101802.86
2017-09-28T06:17:41.403Z,101800.20
2017-09-28T06:20:08.874Z,101796.46
2017-09-28T06:22:36.276Z,101790.17
2017-09-28T06:25:03.695Z,101796.39
2017-09-28T06:27:31.110Z,101791.42
2017-09-28T06:29:58.495Z,101791.62
2017-09-28T06:32:25.903Z,101788.13
2017-09-28T06:34:53.397Z,101793.89
2017-09-28T06:37:20.877Z,101799.88
2017-09-28T06:39:48.259Z,101801.36
2017-09-28T06:42:15.658Z,101797.59
2017-09-28T06:44:43.059Z,101795.84
2017-09-28T06:47:10.598Z,101793.11
2017-09-28T06:49:38.006Z,101797.94
2017-09-28T06:52:05.411Z,101799.30
2017-09-28T06:54:32.810Z,101798.46
2017-09-28T06:57:00.214Z,101804.20
2017-09-28T06:59:27.615Z,101810.08
2017-09-28T07:01:55.022Z,101813.56
2017-09-28T07:04:22.418Z,101810.22
2017-09-28T07:06:49.823Z,101807.34
2017-09-28T07:09:17.319Z,101806.52
2017-09-28T07:11:44.723Z,101803.63
2017-09-28T07:14:12.114Z,101810.00
2017-09-28T07:16:39.517Z,101804.76
2017-09-28T07:19:07.010Z,101795.16
2017-09-28T07:21:34.412Z,101793.41
2017-09-28T07:24:01.826Z,101805.53
2017-09-28T07:26:29.239Z,101810.45
2017-09-28T07:28:56.779Z,101816.39
2017-09-28T07:31:24.182Z,101818.49
2017-09-28T07:33:51.587Z,101820.66
2017-09-28T07:36:19.094Z,101816.67
2017-09-28T07:38:46.502Z,101807.30
2017-09-28T07:41:14.011Z,101808.34
2017-09-28T07:43:41.412Z,101816.16
2017-09-28T07:46:08.822Z,101822.27
2017-09-28T07:48:36.395Z,101821.85
2017-09-28T07:51:03.862Z,101819.33
2017-09-28T07:53:31.262Z,101813.86
2017-09-28T07:55:58.670Z,101819.41
2017-09-28T07:58:26.078Z,101817.72
2017-09-28T08:00:53.478Z,101820.93
2017-09-28T08:03:21.035Z,101815.12
2017-09-28T08:05:48.445Z,101816.98
2017-09-28T08:08:15.851Z,101820.17
2017-09-28T08:10:43.283Z,101820.83
2017-09-28T08:13:10.686Z,101809.92
2017-09-28T08:15:38.083Z,101821.63
2017-09-28T08:18:05.494Z,101820.86
2017-09-28T08:20:32.894Z,101825.63
2017-09-28T08:23:00.317Z,101823.95
2017-09-28T08:25:27.702Z,101819.76
2017-09-28T08:27:55.108Z,101814.75
2017-09-28T08:30:22.530Z,101812.45
2017-09-28T08:32:49.943Z,101816.74
2017-09-28T08:35:17.331Z,101811.05
2017-09-28T08:37:44.791Z,101809.80
2017-09-28T08:40:12.187Z,101811.83
2017-09-28T08:42:39.598Z,101813.72
2017-09-28T08:45:07.012Z,101815.95
2017-09-28T08:47:34.418Z,101810.67
2017-09-28T08:50:01.850Z,101813.61
2017-09-28T08:52:29.263Z,101818.98
2017-09-28T08:54:56.666Z,101823.52
2017-09-28T08:57:24.074Z,101826.69
2017-09-28T08:59:51.467Z,101822.81
2017-09-28T09:02:18.870Z,101818.54
2017-09-28T09:04:46.314Z,101822.06
2017-09-28T09:07:13.714Z,101816.28
2017-09-28T09:09:41.127Z,101814.78
2017-09-28T09:12:08.530Z,101814.30
2017-09-28T09:14:35.930Z,101820.48
2017-09-28T09:17:03.331Z,101822.73
2017-09-28T09:19:30.843Z,101820.83
2017-09-28T09:21:58.307Z,101821.16
2017-09-28T09:24:25.715Z,101814.70
2017-09-28T09:26:53.120Z,101812.73
2017-09-28T09:29:20.632Z,101811.31
2017-09-28T09:31:48.022Z,101810.63
2017-09-28T09:34:15.443Z,101809.89
2017-09-28T09:36:42.841Z,101806.63
2017-09-28T09:39:10.255Z,101798.69
2017-09-28T09:41:37.643Z,101801.86
2017-09-28T09:44:05.050Z,101808.47
2017-09-28T09:46:32.455Z,101808.28
2017-09-28T09:48:59.864Z,101808.05
2017-09-28T09:51:27.271Z,101805.08
2017-09-28T09:53:54.675Z,101808.56
2017-09-28T09:56:22.083Z,101808.56
2017-09-28T09:58:49.499Z,101803.50
2017-09-28T10:01:16.898Z,101805.73
2017-09-28T10:03:44.298Z,101814.34
2017-09-28T10:06:11.723Z,101813.14
2017-09-28T10:08:43.665Z,101811.86
2017-09-28T10:11:11.982Z,101812.04
2017-09-28T10:13:43.470Z,101813.67
2017-09-28T10:16:13.350Z,101810.52
2017-09-28T10:18:40.762Z,101812.60
2017-09-28T10:21:08.174Z,101814.64
2017-09-28T10:23:35.578Z,101819.45
2017-09-28T10:26:02.986Z,101822.52
2017-09-28T10:28:30.386Z,101824.55
2017-09-28T10:30:57.798Z,101826.83
2017-09-28T10:33:25.205Z,101832.98
2017-09-28T10:35:52.609Z,101828.92
2017-09-28T10:38:20.002Z,101832.95
2017-09-28T10:40:47.402Z,101835.16
2017-09-28T10:43:14.807Z,101835.11
2017-09-28T10:45:42.209Z,101824.18
2017-09-28T10:48:09.609Z,101824.91
2017-09-28T10:50:37.007Z,101825.40
2017-09-28T10:53:04.410Z,101825.01
2017-09-28T10:55:31.820Z,101823.39
2017-09-28T10:57:59.220Z,101823.52
2017-09-28T11:00:26.626Z,101825.16
2017-09-28T11:02:54.024Z,101821.81
2017-09-28T11:05:21.438Z,101822.78
2017-09-28T11:07:48.830Z,101828.05
2017-09-28T11:10:16.371Z,101827.26
2017-09-28T11:12:43.783Z,101824.07
2017-09-28T11:15:11.192Z,101819.55
2017-09-28T11:17:38.590Z,101816.37
2017-09-28T11:20:06.163Z,101818.73
2017-09-28T11:22:33.562Z,101817.63
2017-09-28T11:25:00.978Z,101815.86
2017-09-28T11:27:28.437Z,101816.96
2017-09-28T11:29:55.839Z,101814.44
2017-09-28T11:32:23.246Z,101810.96
2017-09-28T11:34:50.651Z,101813.37
2017-09-28T11:37:18.072Z,101812.69
2017-09-28T11:39:45.462Z,101813.63
2017-09-28T11:42:12.884Z,101805.26
2017-09-28T11:44:40.330Z,101803.69
2017-09-28T11:47:07.746Z,101800.06
2017-09-28T11:49:35.134Z,101800.84
2017-09-28T11:52:02.544Z,101795.98
2017-09-28T11:54:29.939Z,101789.71
2017-09-28T11:56:57.335Z,101800.31
2017-09-28T11:59:24.743Z,101802.05
2017-09-28T12:01:52.198Z,101799.92
2017-09-28T12:04:19.615Z,101794.20
2017-09-28T12:06:47.026Z,101800.91
2017-09-28T12:09:14.440Z,101798.92
2017-09-28T12:11:41.853Z,101804.42
2017-09-28T12:14:09.247Z,101802.90
2017-09-28T12:16:36.667Z,101797.55
2017-09-28T12:19:04.051Z,101794.90
2017-09-28T12:21:31.495Z,101789.72
2017-09-28T12:23:58.890Z,101792.44
2017-09-28T12:26:26.290Z,101799.89
2017-09-28T12:28:53.701Z,101799.53
2017-09-28T12:31:21.093Z,101794.17
2017-09-28T12:33:48.491Z,101793.52
2017-09-28T12:36:15.886Z,101804.09
2017-09-28T12:38:43.295Z,101792.06
2017-09-28T12:41:10.704Z,101796.00
2017-09-28T12:43:38.110Z,101801.08
2017-09-28T12:46:05.510Z,101800.59
2017-09-28T12:50:59.602Z,101800.75
2017-09-28T12:53:27.006Z,101803.74
2017-09-28T12:55:54.398Z,101800.92
2017-09-28T12:58:21.905Z,101790.17
2017-09-28T13:00:49.463Z,101798.33
2017-09-28T13:03:16.875Z,101798.12
2017-09-28T13:05:44.274Z,101795.94
2017-09-28T13:08:11.670Z,101794.49
2017-09-28T13:10:39.075Z,101797.91
2017-09-28T13:13:06.471Z,101797.84
2017-09-28T13:15:33.866Z,101805.38
2017-09-28T13:18:01.262Z,101797.48
2017-09-28T13:20:28.682Z,101799.09
2017-09-28T13:22:56.067Z,101808.44
2017-09-28T13:25:23.499Z,101815.06
2017-09-28T13:27:50.895Z,101817.07
2017-09-28T13:30:18.302Z,101816.90
2017-09-28T13:32:45.690Z,101811.65
2017-09-28T13:35:13.100Z,101815.91
2017-09-28T13:37:40.495Z,101815.34
2017-09-28T13:40:07.934Z,101806.86
2017-09-28T13:42:35.331Z,101808.76
2017-09-28T13:45:02.736Z,101814.98
2017-09-28T13:47:30.178Z,101812.98
2017-09-28T13:49:57.576Z,101814.19
2017-09-28T13:52:24.981Z,101803.85
2017-09-28T13:54:52.394Z,101813.23
2017-09-28T13:57:19.803Z,101805.91
2017-09-28T13:59:47.199Z,101808.84
2017-09-28T14:02:14.606Z,101812.01
2017-09-28T14:04:41.994Z,101804.11
2017-09-28T14:07:09.404Z,101806.55
2017-09-28T14:09:36.811Z,101792.73
2017-09-28T14:12:04.252Z,101794.16
2017-09-28T14:14:31.639Z,101785.58
2017-09-28T14:16:59.046Z,101793.26
2017-09-28T14:19:26.463Z,101790.71
2017-09-28T14:21:53.858Z,101787.41
2017-09-28T14:24:21.256Z,101791.19
2017-09-28T14:26:48.655Z,101787.19
2017-09-28T14:29:16.050Z,101775.11
2017-09-28T14:31:43.832Z,101781.63
2017-09-28T14:34:11.226Z,101780.65
2017-09-28T14:36:38.631Z,101783.77
2017-09-28T14:39:06.083Z,101779.92
2017-09-28T14:41:33.498Z,101781.03
2017-09-28T14:44:00.899Z,101782.35
2017-09-28T14:46:28.298Z,101782.11
2017-09-28T14:48:55.695Z,101782.13
2017-09-28T14:51:23.123Z,101780.34
2017-09-28T14:53:50.518Z,101774.87
2017-09-28T14:56:17.911Z,101792.17
2017-09-28T14:58:45.315Z,101795.41
2017-09-28T15:01:12.714Z,101790.55
2017-09-28T15:03:40.116Z,101788.29
2017-09-28T15:06:07.522Z,101793.34
2017-09-28T15:08:34.934Z,101789.95
2017-09-28T15:11:02.359Z,101784.27
2017-09-28T15:13:29.763Z,101782.34
2017-09-28T15:15:57.164Z,101784.56
2017-09-28T15:18:24.594Z,101785.97
2017-09-28T15:20:51.988Z,101777.06
2017-09-28T15:25:46.119Z,101778.22
2017-09-28T15:28:13.521Z,101783.02
2017-09-28T15:30:40.920Z,101784.39
2017-09-28T15:33:08.331Z,101791.88
2017-09-28T15:35:35.726Z,101789.52
2017-09-28T15:38:03.126Z,101793.36
2017-09-28T15:40:30.583Z,101798.57
2017-09-28T15:42:57.988Z,101805.23
2017-09-28T15:45:25.483Z,101807.20
2017-09-28T15:47:52.918Z,101799.80
2017-09-28T15:50:20.324Z,101804.34
2017-09-28T15:52:47.767Z,101809.75
2017-09-28T15:55:15.129Z,101805.76
2017-09-28T15:57:43.416Z,101813.70
2017-09-28T16:00:10.838Z,101813.63
2017-09-28T16:02:38.241Z,101809.52
2017-09-28T16:05:05.644Z,101816.88
2017-09-28T16:07:33.042Z,101813.26
2017-09-28T16:10:00.446Z,101811.59
2017-09-28T16:12:27.851Z,101813.94
2017-09-28T16:14:55.259Z,101810.92
2017-09-28T16:17:22.650Z,101815.38
2017-09-28T16:19:50.057Z,101813.21
2017-09-28T16:22:17.461Z,101818.08
2017-09-28T16:24:44.868Z,101817.73
2017-09-28T16:27:12.263Z,101815.52
2017-09-28T16:29:39.710Z,101819.30
2017-09-28T16:32:07.179Z,101814.56
2017-09-28T16:34:34.585Z,101818.25
2017-09-28T16:37:02.009Z,101814.41
2017-09-28T16:39:29.420Z,101806.52
2017-09-28T16:41:56.814Z,101824.03
2017-09-28T16:44:24.230Z,101818.74
2017-09-28T16:46:51.646Z,101817.08
2017-09-28T16:49:19.074Z,101816.81
2017-09-28T16:51:46.483Z,101817.89
2017-09-28T16:54:13.876Z,101813.66
2017-09-28T16:56:41.291Z,101812.59
2017-09-28T16:59:08.687Z,101819.16
2017-09-28T17:01:36.100Z,101813.02
2017-09-28T17:04:03.491Z,101813.24
2017-09-28T17:06:30.886Z,101809.56
2017-09-28T17:08:58.281Z,101808.71
2017-09-28T17:11:25.690Z,101808.94
2017-09-28T17:13:53.090Z,101810.44
2017-09-28T17:16:20.490Z,101807.30
2017-09-28T17:18:47.908Z,101819.78
2017-09-28T17:21:15.310Z,101814.83
2017-09-28T17:23:42.710Z,101818.28
2017-09-28T17:26:10.114Z,101817.44
2017-09-28T17:28:37.531Z,101818.28
2017-09-28T17:31:04.946Z,101815.86
2017-09-28T17:33:32.357Z,101812.34
2017-09-28T17:35:59.755Z,101802.79
2017-09-28T17:38:27.169Z,101809.60
2017-09-28T17:40:54.563Z,101803.61
2017-09-28T17:43:22.489Z,101803.36
2017-09-28T17:45:49.877Z,101801.86
2017-09-28T17:48:17.284Z,101801.78
2017-09-28T17:50:44.762Z,101801.06
2017-09-28T17:53:12.164Z,101798.11
2017-09-28T17:55:39.568Z,101807.70
2017-09-28T17:58:06.972Z,101804.20
2017-09-28T18:00:34.378Z,101798.84
2017-09-28T18:03:01.790Z,101797.38
2017-09-28T18:05:29.315Z,101797.08
2017-09-28T18:07:56.764Z,101795.26
2017-09-28T18:10:24.163Z,101802.27
2017-09-28T18:12:51.719Z,101802.82
2017-09-28T18:15:19.128Z,101809.56
2017-09-28T18:17:46.550Z,101807.20
2017-09-28T18:20:14.742Z,101810.71
2017-09-28T18:22:42.151Z,101812.55
2017-09-28T18:25:09.551Z,101809.09
2017-09-28T18:27:36.960Z,101815.51
2017-09-28T18:30:04.565Z,101821.88
2017-09-28T18:32:31.978Z,101819.34
2017-09-28T18:34:59.514Z,101821.07
2017-09-28T18:37:26.937Z,101824.25
2017-09-28T18:39:54.351Z,101826.19
2017-09-28T18:42:21.755Z,101830.65
2017-09-28T18:44:49.227Z,101833.05
2017-09-28T18:47:16.620Z,101825.84
2017-09-28T18:49:44.053Z,101821.41
2017-09-28T18:52:11.491Z,101820.19
2017-09-28T18:54:38.890Z,101818.84
2017-09-28T18:57:06.298Z,101820.98
2017-09-28T18:59:33.702Z,101816.16
2017-09-28T19:02:01.102Z,101812.56
2017-09-28T19:04:28.515Z,101814.16
2017-09-28T19:06:55.917Z,101821.16
2017-09-28T19:09:23.332Z,101822.06
2017-09-28T19:11:50.731Z,101823.57
2017-09-28T19:14:18.133Z,101827.30
2017-09-28T19:16:45.551Z,101827.07
2017-09-28T19:19:13.122Z,101825.75
2017-09-28T19:21:40.747Z,101824.16
2017-09-28T19:24:08.202Z,101829.19
2017-09-28T19:26:35.687Z,101826.97
2017-09-28T19:29:03.091Z,101825.20
2017-09-28T19:31:30.490Z,101831.59
2017-09-28T19:33:57.900Z,101834.71
2017-09-28T19:36:25.301Z,101835.53
2017-09-28T19:38:52.760Z,101826.54
2017-09-28T19:41:20.152Z,101830.72
2017-09-28T19:43:47.593Z,101826.66
2017-09-28T19:46:14.983Z,101831.30
2017-09-28T19:48:42.396Z,101825.70
2017-09-28T19:51:09.787Z,101822.22
2017-09-28T19:53:37.198Z,101814.71
2017-09-28T19:56:04.606Z,101811.14
2017-09-28T19:58:32.026Z,101817.63
2017-09-28T20:00:59.436Z,101816.84
2017-09-28T20:03:26.900Z,101809.05
2017-09-28T20:05:54.315Z,101808.69
2017-09-28T20:08:21.722Z,101809.84
2017-09-28T20:10:49.127Z,101802.38
2017-09-28T20:13:16.547Z,101804.20
2017-09-28T20:15:43.963Z,101803.84
2017-09-28T20:18:11.367Z,101796.67
2017-09-28T20:20:38.775Z,101803.50
2017-09-28T20:23:06.188Z,101792.30
2017-09-28T20:25:33.622Z,101799.06
2017-09-28T20:28:01.020Z,101793.77
2017-09-28T20:30:28.418Z,101796.70
2017-09-28T20:32:56.011Z,101788.44
2017-09-28T20:35:23.403Z,101787.81
2017-09-28T20:37:50.795Z,101782.84
2017-09-28T20:40:18.199Z,101787.10
2017-09-28T20:42:45.606Z,101782.79
2017-09-28T20:45:13.080Z,101784.77
2017-09-28T20:47:40.485Z,101784.11
2017-09-28T20:50:07.899Z,101786.41
2017-09-28T20:52:35.292Z,101787.75
2017-09-28T20:55:02.710Z,101788.30
2017-09-28T20:57:30.100Z,101782.51
2017-09-28T20:59:57.505Z,101786.70
2017-09-28T21:02:24.912Z,101790.01
2017-09-28T21:04:52.364Z,101788.08
2017-09-28T21:07:19.766Z,101782.19
2017-09-28T21:09:47.168Z,101776.15
2017-09-28T21:12:14.582Z,101776.50
2017-09-28T21:14:41.989Z,101782.75
2017-09-28T21:17:09.381Z,101779.69
2017-09-28T21:19:36.788Z,101780.43
2017-09-28T21:22:04.191Z,101778.41
2017-09-28T21:24:31.603Z,101775.64
2017-09-28T21:26:59.018Z,101768.75
2017-09-28T21:29:26.419Z,101766.98
2017-09-28T21:31:53.827Z,101770.00
2017-09-28T21:34:21.226Z,101773.05
2017-09-28T21:36:48.639Z,101777.34
2017-09-28T21:39:16.039Z,101781.09
2017-09-28T21:41:43.451Z,101775.42
2017-09-28T21:44:10.851Z,101773.73
2017-09-28T21:46:38.367Z,101770.56
2017-09-28T21:49:05.764Z,101769.68
2017-09-28T21:51:33.171Z,101770.98
2017-09-28T21:54:00.571Z,101768.58
2017-09-28T21:56:27.986Z,101769.69
2017-09-28T21:58:55.391Z,101770.05
2017-09-28T22:01:22.794Z,101765.13
2017-09-28T22:03:50.263Z,101763.91
2017-09-28T22:06:17.663Z,101767.45
2017-09-28T22:08:45.075Z,101762.51
2017-09-28T22:11:12.474Z,101756.89
2017-09-28T22:13:39.992Z,101760.69
2017-09-28T22:16:07.399Z,101755.95
2017-09-28T22:18:34.908Z,101753.92
2017-09-28T22:21:02.316Z,101758.98
2017-09-28T22:23:29.714Z,101757.06
2017-09-28T22:25:57.114Z,101756.95
2017-09-28T22:28:24.522Z,101760.92
2017-09-28T22:30:51.923Z,101752.03
2017-09-28T22:33:19.431Z,101749.47
2017-09-28T22:35:46.829Z,101748.64
2017-09-28T22:38:14.230Z,101750.45
2017-09-28T22:40:41.630Z,101755.08
2017-09-28T22:43:09.044Z,101747.95
2017-09-28T22:45:36.443Z,101747.70
2017-09-28T22:48:03.851Z,101746.21
2017-09-28T22:50:31.254Z,101743.83
2017-09-28T22:52:58.663Z,101749.35
2017-09-28T22:55:26.144Z,101738.39
2017-09-28T22:57:53.554Z,101741.39
2017-09-28T23:00:20.973Z,101742.66
2017-09-28T23:02:48.379Z,101738.31
2017-09-28T23:05:15.784Z,101737.05
2017-09-28T23:07:43.182Z,101734.70
2017-09-28T23:10:10.582Z,101737.55
2017-09-28T23:12:37.986Z,101733.25
2017-09-28T23:15:05.392Z,101732.89
2017-09-28T23:17:32.806Z,101726.38
2017-09-28T23:20:00.204Z,101725.59
2017-09-28T23:22:27.598Z,101726.41
2017-09-28T23:24:55.004Z,101728.55
2017-09-28T23:27:22.394Z,101723.84
2017-09-28T23:29:49.808Z,101719.62
2017-09-28T23:32:17.207Z,101720.98
2017-09-28T23:34:44.618Z,101710.90
2017-09-28T23:37:12.031Z,101712.76
2017-09-28T23:39:39.553Z,101716.55
2017-09-28T23:42:06.939Z,101712.02
2017-09-28T23:44:34.344Z,101710.20
2017-09-28T23:47:01.746Z,101706.94
2017-09-28T23:49:29.156Z,101707.10
2017-09-28T23:51:56.550Z,101708.27
2017-09-28T23:54:23.962Z,101712.03
2017-09-28T23:56:51.364Z,101704.00
2017-09-28T23:59:18.780Z,101716.89
